sensor_id;sensor_type;location;lat;lon;timestamp;temperature;humidity
68804;SHT31;55787;52.678;13.314;2023-12-29T00:00:13;7.94;84.13
68804;SHT31;55787;52.678;13.314;2023-12-29T00:02:40;7.94;84.16
68804;SHT31;55787;52.678;13.314;2023-12-29T00:05:07;7.92;84.19
68804;SHT31;55787;52.678;13.314;2023-12-29T00:07:33;7.89;84.49
68804;SHT31;55787;52.678;13.314;2023-12-29T00:10:00;7.99;83.84
68804;SHT31;55787;52.678;13.314;2023-12-29T00:12:27;8.07;83.50
68804;SHT31;55787;52.678;13.314;2023-12-29T00:14:54;8.17;83.02
68804;SHT31;55787;52.678;13.314;2023-12-29T00:17:20;8.17;83.09
68804;SHT31;55787;52.678;13.314;2023-12-29T00:19:47;8.13;83.18
68804;SHT31;55787;52.678;13.314;2023-12-29T00:22:13;8.12;83.39
68804;SHT31;55787;52.678;13.314;2023-12-29T00:24:40;8.22;82.71
68804;SHT31;55787;52.678;13.314;2023-12-29T00:27:07;8.16;83.05
68804;SHT31;55787;52.678;13.314;2023-12-29T00:29:34;8.13;83.05
68804;SHT31;55787;52.678;13.314;2023-12-29T00:32:01;8.17;82.71
68804;SHT31;55787;52.678;13.314;2023-12-29T00:34:29;8.25;82.34
68804;SHT31;55787;52.678;13.314;2023-12-29T00:36:56;8.25;82.41
68804;SHT31;55787;52.678;13.314;2023-12-29T00:39:23;8.17;82.78
68804;SHT31;55787;52.678;13.314;2023-12-29T00:41:55;8.21;82.72
68804;SHT31;55787;52.678;13.314;2023-12-29T00:44:23;8.19;82.59
68804;SHT31;55787;52.678;13.314;2023-12-29T00:46:50;8.23;82.80
68804;SHT31;55787;52.678;13.314;2023-12-29T00:49:17;8.22;82.52
68804;SHT31;55787;52.678;13.314;2023-12-29T00:51:44;8.17;82.62
68804;SHT31;55787;52.678;13.314;2023-12-29T00:54:10;8.09;83.09
68804;SHT31;55787;52.678;13.314;2023-12-29T00:56:37;8.06;83.08
68804;SHT31;55787;52.678;13.314;2023-12-29T00:59:03;8.29;82.36
68804;SHT31;55787;52.678;13.314;2023-12-29T01:01:34;8.28;82.14
68804;SHT31;55787;52.678;13.314;2023-12-29T01:04:02;8.33;81.75
68804;SHT31;55787;52.678;13.314;2023-12-29T01:06:29;8.30;82.09
68804;SHT31;55787;52.678;13.314;2023-12-29T01:08:56;8.29;81.91
68804;SHT31;55787;52.678;13.314;2023-12-29T01:11:22;8.34;81.74
68804;SHT31;55787;52.678;13.314;2023-12-29T01:13:49;8.43;81.06
68804;SHT31;55787;52.678;13.314;2023-12-29T01:16:16;8.36;81.66
68804;SHT31;55787;52.678;13.314;2023-12-29T01:18:42;8.34;81.50
68804;SHT31;55787;52.678;13.314;2023-12-29T01:21:10;8.37;81.10
68804;SHT31;55787;52.678;13.314;2023-12-29T01:23:36;8.34;81.42
68804;SHT31;55787;52.678;13.314;2023-12-29T01:26:03;8.34;81.26
68804;SHT31;55787;52.678;13.314;2023-12-29T01:28:30;8.36;81.29
68804;SHT31;55787;52.678;13.314;2023-12-29T01:30:56;8.33;81.14
68804;SHT31;55787;52.678;13.314;2023-12-29T01:33:23;8.40;80.90
68804;SHT31;55787;52.678;13.314;2023-12-29T01:35:49;8.43;80.62
68804;SHT31;55787;52.678;13.314;2023-12-29T01:38:16;8.44;80.64
68804;SHT31;55787;52.678;13.314;2023-12-29T01:40:46;8.43;80.69
68804;SHT31;55787;52.678;13.314;2023-12-29T01:43:13;8.39;80.81
68804;SHT31;55787;52.678;13.314;2023-12-29T01:45:40;8.47;80.32
68804;SHT31;55787;52.678;13.314;2023-12-29T01:48:22;8.46;80.33
68804;SHT31;55787;52.678;13.314;2023-12-29T01:50:50;8.44;80.59
68804;SHT31;55787;52.678;13.314;2023-12-29T01:53:17;8.46;80.08
68804;SHT31;55787;52.678;13.314;2023-12-29T01:55:47;8.46;80.43
68804;SHT31;55787;52.678;13.314;2023-12-29T01:58:15;8.54;79.93
68804;SHT31;55787;52.678;13.314;2023-12-29T02:00:42;8.54;80.00
68804;SHT31;55787;52.678;13.314;2023-12-29T02:03:09;8.52;79.97
68804;SHT31;55787;52.678;13.314;2023-12-29T02:05:36;8.52;79.90
68804;SHT31;55787;52.678;13.314;2023-12-29T02:08:04;8.47;80.20
68804;SHT31;55787;52.678;13.314;2023-12-29T02:10:35;8.49;80.23
68804;SHT31;55787;52.678;13.314;2023-12-29T02:13:02;8.44;80.14
68804;SHT31;55787;52.678;13.314;2023-12-29T02:15:29;8.37;80.63
68804;SHT31;55787;52.678;13.314;2023-12-29T02:18:00;8.34;80.43
68804;SHT31;55787;52.678;13.314;2023-12-29T02:20:29;8.37;80.59
68804;SHT31;55787;52.678;13.314;2023-12-29T02:22:56;8.34;80.69
68804;SHT31;55787;52.678;13.314;2023-12-29T02:25:22;8.39;80.38
68804;SHT31;55787;52.678;13.314;2023-12-29T02:27:54;8.37;80.38
68804;SHT31;55787;52.678;13.314;2023-12-29T02:30:41;8.42;80.53
68804;SHT31;55787;52.678;13.314;2023-12-29T02:33:14;8.40;80.56
68804;SHT31;55787;52.678;13.314;2023-12-29T02:35:43;8.42;80.52
68804;SHT31;55787;52.678;13.314;2023-12-29T02:38:12;8.47;80.07
68804;SHT31;55787;52.678;13.314;2023-12-29T02:40:39;8.49;80.07
68804;SHT31;55787;52.678;13.314;2023-12-29T02:43:08;8.53;79.98
68804;SHT31;55787;52.678;13.314;2023-12-29T02:45:35;8.50;80.34
68804;SHT31;55787;52.678;13.314;2023-12-29T02:48:02;8.47;80.15
68804;SHT31;55787;52.678;13.314;2023-12-29T02:50:29;8.46;80.31
68804;SHT31;55787;52.678;13.314;2023-12-29T02:52:55;8.47;80.20
68804;SHT31;55787;52.678;13.314;2023-12-29T02:55:22;8.44;80.61
68804;SHT31;55787;52.678;13.314;2023-12-29T02:57:49;8.46;80.25
68804;SHT31;55787;52.678;13.314;2023-12-29T03:00:15;8.46;80.37
68804;SHT31;55787;52.678;13.314;2023-12-29T03:02:42;8.40;80.67
68804;SHT31;55787;52.678;13.314;2023-12-29T03:05:10;8.40;80.59
68804;SHT31;55787;52.678;13.314;2023-12-29T03:07:37;8.34;81.21
68804;SHT31;55787;52.678;13.314;2023-12-29T03:10:04;8.39;80.56
68804;SHT31;55787;52.678;13.314;2023-12-29T03:12:30;8.46;80.15
68804;SHT31;55787;52.678;13.314;2023-12-29T03:14:57;8.44;80.46
68804;SHT31;55787;52.678;13.314;2023-12-29T03:17:24;8.39;80.85
68804;SHT31;55787;52.678;13.314;2023-12-29T03:19:52;8.46;80.44
68804;SHT31;55787;52.678;13.314;2023-12-29T03:22:19;8.46;80.31
68804;SHT31;55787;52.678;13.314;2023-12-29T03:24:45;8.47;80.37
68804;SHT31;55787;52.678;13.314;2023-12-29T03:27:12;8.52;80.14
68804;SHT31;55787;52.678;13.314;2023-12-29T03:29:39;8.59;80.07
68804;SHT31;55787;52.678;13.314;2023-12-29T03:32:06;8.47;80.29
68804;SHT31;55787;52.678;13.314;2023-12-29T03:34:33;8.49;80.32
68804;SHT31;55787;52.678;13.314;2023-12-29T03:37:00;8.52;80.20
68804;SHT31;55787;52.678;13.314;2023-12-29T03:39:27;8.52;80.15
68804;SHT31;55787;52.678;13.314;2023-12-29T03:41:53;8.56;79.97
68804;SHT31;55787;52.678;13.314;2023-12-29T03:44:20;8.57;79.86
68804;SHT31;55787;52.678;13.314;2023-12-29T03:46:46;8.59;79.84
68804;SHT31;55787;52.678;13.314;2023-12-29T03:49:13;8.59;79.85
68804;SHT31;55787;52.678;13.314;2023-12-29T03:51:40;8.60;79.63
68804;SHT31;55787;52.678;13.314;2023-12-29T03:54:06;8.68;79.45
68804;SHT31;55787;52.678;13.314;2023-12-29T03:56:33;8.73;79.15
68804;SHT31;55787;52.678;13.314;2023-12-29T03:59:00;8.71;79.35
68804;SHT31;55787;52.678;13.314;2023-12-29T04:01:26;8.67;79.43
68804;SHT31;55787;52.678;13.314;2023-12-29T04:03:55;8.73;79.11
68804;SHT31;55787;52.678;13.314;2023-12-29T04:06:21;8.73;79.23
68804;SHT31;55787;52.678;13.314;2023-12-29T04:08:48;8.61;80.93
68804;SHT31;55787;52.678;13.314;2023-12-29T04:11:15;8.56;80.83
68804;SHT31;55787;52.678;13.314;2023-12-29T04:13:41;8.57;80.97
68804;SHT31;55787;52.678;13.314;2023-12-29T04:16:08;8.57;80.52
68804;SHT31;55787;52.678;13.314;2023-12-29T04:18:35;8.54;80.90
68804;SHT31;55787;52.678;13.314;2023-12-29T04:21:02;8.56;81.12
68804;SHT31;55787;52.678;13.314;2023-12-29T04:23:28;8.50;81.39
68804;SHT31;55787;52.678;13.314;2023-12-29T04:25:55;8.52;80.94
68804;SHT31;55787;52.678;13.314;2023-12-29T04:28:22;8.47;81.23
68804;SHT31;55787;52.678;13.314;2023-12-29T04:30:49;8.50;80.78
68804;SHT31;55787;52.678;13.314;2023-12-29T04:33:15;8.44;81.08
68804;SHT31;55787;52.678;13.314;2023-12-29T04:35:42;8.30;81.53
68804;SHT31;55787;52.678;13.314;2023-12-29T04:38:09;8.34;81.11
68804;SHT31;55787;52.678;13.314;2023-12-29T04:40:36;8.44;80.65
68804;SHT31;55787;52.678;13.314;2023-12-29T04:43:03;8.37;80.99
68804;SHT31;55787;52.678;13.314;2023-12-29T04:45:29;8.29;81.38
68804;SHT31;55787;52.678;13.314;2023-12-29T04:47:56;8.29;81.30
68804;SHT31;55787;52.678;13.314;2023-12-29T04:50:23;8.26;81.51
68804;SHT31;55787;52.678;13.314;2023-12-29T04:52:49;8.29;81.26
68804;SHT31;55787;52.678;13.314;2023-12-29T04:55:16;8.28;81.50
68804;SHT31;55787;52.678;13.314;2023-12-29T04:57:43;8.13;82.20
68804;SHT31;55787;52.678;13.314;2023-12-29T05:00:10;8.32;81.36
68804;SHT31;55787;52.678;13.314;2023-12-29T05:02:38;8.28;81.28
68804;SHT31;55787;52.678;13.314;2023-12-29T05:05:05;8.26;81.38
68804;SHT31;55787;52.678;13.314;2023-12-29T05:07:31;8.33;81.26
68804;SHT31;55787;52.678;13.314;2023-12-29T05:09:58;8.40;81.15
68804;SHT31;55787;52.678;13.314;2023-12-29T05:12:24;8.36;81.41
68804;SHT31;55787;52.678;13.314;2023-12-29T05:14:51;8.46;81.05
68804;SHT31;55787;52.678;13.314;2023-12-29T05:17:18;8.49;80.81
68804;SHT31;55787;52.678;13.314;2023-12-29T05:19:44;8.56;80.86
68804;SHT31;55787;52.678;13.314;2023-12-29T05:22:11;8.50;81.06
68804;SHT31;55787;52.678;13.314;2023-12-29T05:24:42;8.54;81.02
68804;SHT31;55787;52.678;13.314;2023-12-29T05:27:09;8.56;81.02
68804;SHT31;55787;52.678;13.314;2023-12-29T05:29:36;8.63;80.68
68804;SHT31;55787;52.678;13.314;2023-12-29T05:32:04;8.59;80.91
68804;SHT31;55787;52.678;13.314;2023-12-29T05:34:30;8.67;80.74
68804;SHT31;55787;52.678;13.314;2023-12-29T05:36:57;8.70;80.42
68804;SHT31;55787;52.678;13.314;2023-12-29T05:39:24;8.65;80.76
68804;SHT31;55787;52.678;13.314;2023-12-29T05:41:51;8.65;81.07
68804;SHT31;55787;52.678;13.314;2023-12-29T05:44:17;8.70;80.73
68804;SHT31;55787;52.678;13.314;2023-12-29T05:46:48;8.73;81.11
68804;SHT31;55787;52.678;13.314;2023-12-29T05:49:14;8.74;80.84
68804;SHT31;55787;52.678;13.314;2023-12-29T05:51:41;8.77;80.90
68804;SHT31;55787;52.678;13.314;2023-12-29T05:54:08;8.88;80.41
68804;SHT31;55787;52.678;13.314;2023-12-29T05:56:34;8.91;80.57
68804;SHT31;55787;52.678;13.314;2023-12-29T05:59:01;8.91;80.54
68804;SHT31;55787;52.678;13.314;2023-12-29T06:01:37;8.87;80.89
68804;SHT31;55787;52.678;13.314;2023-12-29T06:04:04;8.85;80.87
68804;SHT31;55787;52.678;13.314;2023-12-29T06:06:30;8.95;80.48
68804;SHT31;55787;52.678;13.314;2023-12-29T06:08:57;8.91;80.69
68804;SHT31;55787;52.678;13.314;2023-12-29T06:11:24;8.87;80.79
68804;SHT31;55787;52.678;13.314;2023-12-29T06:13:50;8.87;80.72
68804;SHT31;55787;52.678;13.314;2023-12-29T06:16:18;8.91;80.49
68804;SHT31;55787;52.678;13.314;2023-12-29T06:18:45;8.97;80.55
68804;SHT31;55787;52.678;13.314;2023-12-29T06:21:12;8.95;80.57
68804;SHT31;55787;52.678;13.314;2023-12-29T06:23:39;8.97;80.57
68804;SHT31;55787;52.678;13.314;2023-12-29T06:26:13;8.98;80.34
68804;SHT31;55787;52.678;13.314;2023-12-29T06:28:40;8.97;80.56
68804;SHT31;55787;52.678;13.314;2023-12-29T06:31:07;9.04;80.04
68804;SHT31;55787;52.678;13.314;2023-12-29T06:33:34;9.01;80.12
68804;SHT31;55787;52.678;13.314;2023-12-29T06:36:01;9.00;80.40
68804;SHT31;55787;52.678;13.314;2023-12-29T06:38:28;9.08;79.86
68804;SHT31;55787;52.678;13.314;2023-12-29T06:40:54;9.02;80.35
68804;SHT31;55787;52.678;13.314;2023-12-29T06:43:21;9.01;80.06
68804;SHT31;55787;52.678;13.314;2023-12-29T06:45:48;9.04;79.79
68804;SHT31;55787;52.678;13.314;2023-12-29T06:48:14;8.97;80.20
68804;SHT31;55787;52.678;13.314;2023-12-29T06:50:41;8.95;80.19
68804;SHT31;55787;52.678;13.314;2023-12-29T06:53:08;8.91;80.40
68804;SHT31;55787;52.678;13.314;2023-12-29T06:55:35;8.87;80.35
68804;SHT31;55787;52.678;13.314;2023-12-29T06:58:01;8.89;80.44
68804;SHT31;55787;52.678;13.314;2023-12-29T07:00:28;8.91;80.34
68804;SHT31;55787;52.678;13.314;2023-12-29T07:02:55;8.87;80.45
68804;SHT31;55787;52.678;13.314;2023-12-29T07:05:22;8.81;80.59
68804;SHT31;55787;52.678;13.314;2023-12-29T07:07:48;8.88;80.35
68804;SHT31;55787;52.678;13.314;2023-12-29T07:10:15;8.97;79.89
68804;SHT31;55787;52.678;13.314;2023-12-29T07:12:42;8.89;80.37
68804;SHT31;55787;52.678;13.314;2023-12-29T07:15:09;8.94;80.07
68804;SHT31;55787;52.678;13.314;2023-12-29T07:17:35;9.12;79.48
68804;SHT31;55787;52.678;13.314;2023-12-29T07:20:02;9.14;79.63
68804;SHT31;55787;52.678;13.314;2023-12-29T07:22:29;9.19;79.29
68804;SHT31;55787;52.678;13.314;2023-12-29T07:24:57;9.19;79.35
68804;SHT31;55787;52.678;13.314;2023-12-29T07:27:23;9.29;78.88
68804;SHT31;55787;52.678;13.314;2023-12-29T07:29:50;9.26;79.18
68804;SHT31;55787;52.678;13.314;2023-12-29T07:32:16;9.33;78.86
68804;SHT31;55787;52.678;13.314;2023-12-29T07:34:43;9.36;78.81
68804;SHT31;55787;52.678;13.314;2023-12-29T07:37:11;9.39;78.79
68804;SHT31;55787;52.678;13.314;2023-12-29T07:39:38;9.33;78.81
68804;SHT31;55787;52.678;13.314;2023-12-29T07:42:05;9.46;78.31
68804;SHT31;55787;52.678;13.314;2023-12-29T07:44:32;9.42;78.68
68804;SHT31;55787;52.678;13.314;2023-12-29T07:46:58;9.38;78.94
68804;SHT31;55787;52.678;13.314;2023-12-29T07:49:25;9.38;78.93
68804;SHT31;55787;52.678;13.314;2023-12-29T07:51:53;9.46;78.58
68804;SHT31;55787;52.678;13.314;2023-12-29T07:54:19;9.43;78.72
68804;SHT31;55787;52.678;13.314;2023-12-29T07:56:46;9.42;78.86
68804;SHT31;55787;52.678;13.314;2023-12-29T07:59:13;9.46;78.72
68804;SHT31;55787;52.678;13.314;2023-12-29T08:01:39;9.45;79.04
68804;SHT31;55787;52.678;13.314;2023-12-29T08:04:06;9.45;78.99
68804;SHT31;55787;52.678;13.314;2023-12-29T08:06:33;9.49;78.76
68804;SHT31;55787;52.678;13.314;2023-12-29T08:09:00;9.47;78.78
68804;SHT31;55787;52.678;13.314;2023-12-29T08:11:26;9.52;78.76
68804;SHT31;55787;52.678;13.314;2023-12-29T08:13:53;9.49;79.13
68804;SHT31;55787;52.678;13.314;2023-12-29T08:16:19;9.52;78.90
68804;SHT31;55787;52.678;13.314;2023-12-29T08:18:48;9.53;79.00
68804;SHT31;55787;52.678;13.314;2023-12-29T08:21:16;9.57;78.91
68804;SHT31;55787;52.678;13.314;2023-12-29T08:23:48;9.56;78.90
68804;SHT31;55787;52.678;13.314;2023-12-29T08:26:15;9.57;79.11
68804;SHT31;55787;52.678;13.314;2023-12-29T08:28:42;9.64;79.10
68804;SHT31;55787;52.678;13.314;2023-12-29T08:31:09;9.73;78.56
68804;SHT31;55787;52.678;13.314;2023-12-29T08:33:36;9.70;78.60
68804;SHT31;55787;52.678;13.314;2023-12-29T08:36:03;9.82;78.17
68804;SHT31;55787;52.678;13.314;2023-12-29T08:38:30;9.82;78.45
68804;SHT31;55787;52.678;13.314;2023-12-29T08:40:59;9.80;78.47
68804;SHT31;55787;52.678;13.314;2023-12-29T08:43:26;9.84;78.74
68804;SHT31;55787;52.678;13.314;2023-12-29T08:45:53;9.91;78.20
68804;SHT31;55787;52.678;13.314;2023-12-29T08:48:20;10.08;77.76
68804;SHT31;55787;52.678;13.314;2023-12-29T08:50:47;10.20;77.22
68804;SHT31;55787;52.678;13.314;2023-12-29T08:53:14;10.31;76.99
68804;SHT31;55787;52.678;13.314;2023-12-29T08:55:41;10.41;76.82
68804;SHT31;55787;52.678;13.314;2023-12-29T08:58:08;10.35;77.38
68804;SHT31;55787;52.678;13.314;2023-12-29T09:00:35;10.31;76.96
68804;SHT31;55787;52.678;13.314;2023-12-29T09:03:02;10.32;77.22
68804;SHT31;55787;52.678;13.314;2023-12-29T09:05:29;10.34;77.15
68804;SHT31;55787;52.678;13.314;2023-12-29T09:07:55;10.24;77.58
68804;SHT31;55787;52.678;13.314;2023-12-29T09:10:22;10.30;77.39
68804;SHT31;55787;52.678;13.314;2023-12-29T09:12:49;10.37;77.06
68804;SHT31;55787;52.678;13.314;2023-12-29T09:15:16;10.30;77.52
68804;SHT31;55787;52.678;13.314;2023-12-29T09:17:43;10.14;78.01
68804;SHT31;55787;52.678;13.314;2023-12-29T09:20:10;10.03;78.53
68804;SHT31;55787;52.678;13.314;2023-12-29T09:22:37;9.97;78.72
68804;SHT31;55787;52.678;13.314;2023-12-29T09:25:04;9.94;79.07
68804;SHT31;55787;52.678;13.314;2023-12-29T09:27:31;9.95;79.38
68804;SHT31;55787;52.678;13.314;2023-12-29T09:29:58;10.22;78.82
68804;SHT31;55787;52.678;13.314;2023-12-29T09:32:25;10.58;77.58
68804;SHT31;55787;52.678;13.314;2023-12-29T09:34:51;10.93;76.82
68804;SHT31;55787;52.678;13.314;2023-12-29T09:37:18;10.89;76.67
68804;SHT31;55787;52.678;13.314;2023-12-29T09:39:45;10.56;77.61
68804;SHT31;55787;52.678;13.314;2023-12-29T09:42:20;10.35;78.41
68804;SHT31;55787;52.678;13.314;2023-12-29T09:44:51;10.22;79.24
68804;SHT31;55787;52.678;13.314;2023-12-29T09:47:23;10.22;79.59
68804;SHT31;55787;52.678;13.314;2023-12-29T09:49:51;10.22;79.05
68804;SHT31;55787;52.678;13.314;2023-12-29T09:52:22;10.22;78.88
68804;SHT31;55787;52.678;13.314;2023-12-29T09:54:52;10.15;78.77
68804;SHT31;55787;52.678;13.314;2023-12-29T09:57:19;10.17;78.74
68804;SHT31;55787;52.678;13.314;2023-12-29T09:59:49;10.10;78.76
68804;SHT31;55787;52.678;13.314;2023-12-29T10:02:20;10.11;79.11
68804;SHT31;55787;52.678;13.314;2023-12-29T10:04:46;10.10;79.46
68804;SHT31;55787;52.678;13.314;2023-12-29T10:07:20;10.07;79.49
68804;SHT31;55787;52.678;13.314;2023-12-29T10:09:56;9.97;80.33
68804;SHT31;55787;52.678;13.314;2023-12-29T10:12:24;10.01;80.68
68804;SHT31;55787;52.678;13.314;2023-12-29T10:23:17;9.89;81.85
68804;SHT31;55787;52.678;13.314;2023-12-29T10:25:45;9.86;82.61
68804;SHT31;55787;52.678;13.314;2023-12-29T10:28:13;9.77;83.67
68804;SHT31;55787;52.678;13.314;2023-12-29T10:30:40;9.67;84.59
68804;SHT31;55787;52.678;13.314;2023-12-29T10:33:07;9.57;85.52
68804;SHT31;55787;52.678;13.314;2023-12-29T10:35:38;9.50;86.20
68804;SHT31;55787;52.678;13.314;2023-12-29T10:38:12;9.38;86.47
68804;SHT31;55787;52.678;13.314;2023-12-29T10:40:40;9.35;86.95
68804;SHT31;55787;52.678;13.314;2023-12-29T10:43:08;9.32;86.32
68804;SHT31;55787;52.678;13.314;2023-12-29T10:45:36;9.33;85.85
68804;SHT31;55787;52.678;13.314;2023-12-29T10:48:03;9.43;85.34
68804;SHT31;55787;52.678;13.314;2023-12-29T10:50:42;9.53;85.10
68804;SHT31;55787;52.678;13.314;2023-12-29T10:53:11;9.64;83.81
68804;SHT31;55787;52.678;13.314;2023-12-29T10:55:38;9.67;83.28
68804;SHT31;55787;52.678;13.314;2023-12-29T10:58:05;9.77;82.10
68804;SHT31;55787;52.678;13.314;2023-12-29T11:00:32;9.93;80.57
68804;SHT31;55787;52.678;13.314;2023-12-29T11:02:59;9.94;80.91
68804;SHT31;55787;52.678;13.314;2023-12-29T11:05:27;9.98;81.18
68804;SHT31;55787;52.678;13.314;2023-12-29T11:07:55;10.00;80.36
68804;SHT31;55787;52.678;13.314;2023-12-29T11:10:21;10.14;79.25
68804;SHT31;55787;52.678;13.314;2023-12-29T11:12:49;10.14;78.81
68804;SHT31;55787;52.678;13.314;2023-12-29T11:15:16;10.21;79.03
68804;SHT31;55787;52.678;13.314;2023-12-29T11:17:43;10.40;77.43
68804;SHT31;55787;52.678;13.314;2023-12-29T11:20:16;10.48;77.03
68804;SHT31;55787;52.678;13.314;2023-12-29T11:22:46;10.51;76.88
68804;SHT31;55787;52.678;13.314;2023-12-29T11:25:13;10.58;76.66
68804;SHT31;55787;52.678;13.314;2023-12-29T11:27:42;10.61;76.39
68804;SHT31;55787;52.678;13.314;2023-12-29T11:30:11;10.72;75.91
68804;SHT31;55787;52.678;13.314;2023-12-29T11:32:53;10.66;76.11
68804;SHT31;55787;52.678;13.314;2023-12-29T11:35:55;10.69;76.11
68804;SHT31;55787;52.678;13.314;2023-12-29T11:41:05;10.66;76.31
68804;SHT31;55787;52.678;13.314;2023-12-29T11:43:34;10.65;75.88
68804;SHT31;55787;52.678;13.314;2023-12-29T11:46:02;10.62;76.08
68804;SHT31;55787;52.678;13.314;2023-12-29T11:48:54;10.61;76.43
68804;SHT31;55787;52.678;13.314;2023-12-29T11:53:55;10.72;75.82
68804;SHT31;55787;52.678;13.314;2023-12-29T11:56:22;10.66;75.63
68804;SHT31;55787;52.678;13.314;2023-12-29T11:58:49;10.69;75.76
68804;SHT31;55787;52.678;13.314;2023-12-29T12:01:48;10.73;76.06
68804;SHT31;55787;52.678;13.314;2023-12-29T12:04:35;10.80;75.72
68804;SHT31;55787;52.678;13.314;2023-12-29T12:07:04;10.83;74.69
68804;SHT31;55787;52.678;13.314;2023-12-29T12:09:31;10.86;74.87
68804;SHT31;55787;52.678;13.314;2023-12-29T12:12:03;10.85;75.14
68804;SHT31;55787;52.678;13.314;2023-12-29T12:17:12;10.80;74.94
68804;SHT31;55787;52.678;13.314;2023-12-29T12:19:40;10.79;75.14
68804;SHT31;55787;52.678;13.314;2023-12-29T12:22:09;10.80;75.05
68804;SHT31;55787;52.678;13.314;2023-12-29T12:24:36;10.77;76.26
68804;SHT31;55787;52.678;13.314;2023-12-29T12:27:09;10.66;76.84
68804;SHT31;55787;52.678;13.314;2023-12-29T12:29:36;10.65;76.31
68804;SHT31;55787;52.678;13.314;2023-12-29T12:32:03;10.65;76.51
68804;SHT31;55787;52.678;13.314;2023-12-29T12:34:37;10.58;76.82
68804;SHT31;55787;52.678;13.314;2023-12-29T12:37:03;10.49;77.71
68804;SHT31;55787;52.678;13.314;2023-12-29T12:39:40;10.48;78.07
68804;SHT31;55787;52.678;13.314;2023-12-29T12:42:07;10.41;79.07
68804;SHT31;55787;52.678;13.314;2023-12-29T12:44:33;10.30;81.40
68804;SHT31;55787;52.678;13.314;2023-12-29T12:47:06;10.14;81.32
68804;SHT31;55787;52.678;13.314;2023-12-29T12:49:33;9.90;82.82
68804;SHT31;55787;52.678;13.314;2023-12-29T12:52:00;9.84;83.12
68804;SHT31;55787;52.678;13.314;2023-12-29T12:54:28;9.73;84.42
68804;SHT31;55787;52.678;13.314;2023-12-29T12:56:55;9.66;85.73
68804;SHT31;55787;52.678;13.314;2023-12-29T12:59:22;9.52;85.54
68804;SHT31;55787;52.678;13.314;2023-12-29T13:01:49;9.47;86.21
68804;SHT31;55787;52.678;13.314;2023-12-29T13:04:16;9.46;87.11
68804;SHT31;55787;52.678;13.314;2023-12-29T13:06:43;9.47;85.69
68804;SHT31;55787;52.678;13.314;2023-12-29T13:09:14;9.40;86.73
68804;SHT31;55787;52.678;13.314;2023-12-29T13:11:45;9.36;87.23
68804;SHT31;55787;52.678;13.314;2023-12-29T13:14:22;9.32;86.81
68804;SHT31;55787;52.678;13.314;2023-12-29T13:16:49;9.35;86.60
68804;SHT31;55787;52.678;13.314;2023-12-29T13:19:23;9.32;86.69
68804;SHT31;55787;52.678;13.314;2023-12-29T13:21:53;9.35;87.53
68804;SHT31;55787;52.678;13.314;2023-12-29T13:24:23;9.28;88.50
68804;SHT31;55787;52.678;13.314;2023-12-29T13:27:03;9.18;89.42
68804;SHT31;55787;52.678;13.314;2023-12-29T13:29:31;9.12;90.48
68804;SHT31;55787;52.678;13.314;2023-12-29T13:32:05;9.10;90.93
68804;SHT31;55787;52.678;13.314;2023-12-29T13:37:31;8.98;91.43
68804;SHT31;55787;52.678;13.314;2023-12-29T13:40:19;9.05;91.04
68804;SHT31;55787;52.678;13.314;2023-12-29T13:42:51;9.10;90.80
68804;SHT31;55787;52.678;13.314;2023-12-29T13:45:19;9.02;90.67
68804;SHT31;55787;52.678;13.314;2023-12-29T13:47:47;9.07;90.26
68804;SHT31;55787;52.678;13.314;2023-12-29T13:50:14;9.15;89.77
68804;SHT31;55787;52.678;13.314;2023-12-29T13:52:41;9.18;89.84
68804;SHT31;55787;52.678;13.314;2023-12-29T13:55:07;9.26;88.20
68804;SHT31;55787;52.678;13.314;2023-12-29T13:57:36;9.32;88.25
68804;SHT31;55787;52.678;13.314;2023-12-29T14:00:18;9.43;87.42
68804;SHT31;55787;52.678;13.314;2023-12-29T14:02:57;9.50;87.13
68804;SHT31;55787;52.678;13.314;2023-12-29T14:08:08;9.73;85.01
68804;SHT31;55787;52.678;13.314;2023-12-29T14:10:36;9.70;85.65
68804;SHT31;55787;52.678;13.314;2023-12-29T14:13:15;9.90;83.55
68804;SHT31;55787;52.678;13.314;2023-12-29T14:15:43;9.87;83.99
68804;SHT31;55787;52.678;13.314;2023-12-29T14:20:40;10.10;82.67
68804;SHT31;55787;52.678;13.314;2023-12-29T14:23:07;10.01;83.33
68804;SHT31;55787;52.678;13.314;2023-12-29T14:25:35;10.00;83.47
68804;SHT31;55787;52.678;13.314;2023-12-29T14:28:14;10.04;82.89
68804;SHT31;55787;52.678;13.314;2023-12-29T14:30:42;10.05;82.54
68804;SHT31;55787;52.678;13.314;2023-12-29T14:33:09;10.08;82.69
68804;SHT31;55787;52.678;13.314;2023-12-29T14:35:35;10.14;82.00
68804;SHT31;55787;52.678;13.314;2023-12-29T14:38:03;10.21;81.72
68804;SHT31;55787;52.678;13.314;2023-12-29T14:40:30;10.25;81.53
68804;SHT31;55787;52.678;13.314;2023-12-29T14:42:56;10.20;81.60
68804;SHT31;55787;52.678;13.314;2023-12-29T14:45:23;10.15;81.57
68804;SHT31;55787;52.678;13.314;2023-12-29T14:47:50;10.31;80.69
68804;SHT31;55787;52.678;13.314;2023-12-29T14:50:16;10.27;81.21
68804;SHT31;55787;52.678;13.314;2023-12-29T14:52:43;10.22;81.32
68804;SHT31;55787;52.678;13.314;2023-12-29T14:55:10;10.24;81.11
68804;SHT31;55787;52.678;13.314;2023-12-29T14:57:36;10.20;80.83
68804;SHT31;55787;52.678;13.314;2023-12-29T15:00:04;10.25;80.46
68804;SHT31;55787;52.678;13.314;2023-12-29T15:02:31;10.40;79.75
68804;SHT31;55787;52.678;13.314;2023-12-29T15:04:58;10.40;79.91
68804;SHT31;55787;52.678;13.314;2023-12-29T15:07:25;10.37;80.18
68804;SHT31;55787;52.678;13.314;2023-12-29T15:09:57;10.44;80.20
68804;SHT31;55787;52.678;13.314;2023-12-29T15:12:23;10.41;80.04
68804;SHT31;55787;52.678;13.314;2023-12-29T15:14:50;10.35;80.16
68804;SHT31;55787;52.678;13.314;2023-12-29T15:17:17;10.31;80.75
68804;SHT31;55787;52.678;13.314;2023-12-29T15:19:43;10.38;80.63
68804;SHT31;55787;52.678;13.314;2023-12-29T15:22:10;10.21;83.08
68804;SHT31;55787;52.678;13.314;2023-12-29T15:24:36;10.11;85.81
68804;SHT31;55787;52.678;13.314;2023-12-29T15:27:03;9.91;87.53
68804;SHT31;55787;52.678;13.314;2023-12-29T15:29:30;9.59;89.90
68804;SHT31;55787;52.678;13.314;2023-12-29T15:31:58;9.36;91.04
68804;SHT31;55787;52.678;13.314;2023-12-29T15:34:24;9.25;91.74
68804;SHT31;55787;52.678;13.314;2023-12-29T15:36:51;9.18;91.78
68804;SHT31;55787;52.678;13.314;2023-12-29T15:39:18;9.07;92.11
68804;SHT31;55787;52.678;13.314;2023-12-29T15:41:45;9.01;93.13
68804;SHT31;55787;52.678;13.314;2023-12-29T15:44:12;8.91;93.61
68804;SHT31;55787;52.678;13.314;2023-12-29T15:46:39;8.83;94.26
68804;SHT31;55787;52.678;13.314;2023-12-29T15:49:06;8.74;94.67
68804;SHT31;55787;52.678;13.314;2023-12-29T15:51:33;8.63;94.94
68804;SHT31;55787;52.678;13.314;2023-12-29T15:54:00;8.56;95.27
68804;SHT31;55787;52.678;13.314;2023-12-29T15:56:27;8.46;95.50